Time;durP1;ratioP1;P1;durP2;ratioP2;P2;SDS_P1;SDS_P2;PMS_P1;PMS_P2;Temp;Humidity;BMP_temperature;BMP_pressure;BME280_temperature;BME280_humidity;BME280_pressure;Samples;Min_cycle;Max_cycle;Signal;HPM_P1;HPM_P2
2023/02/23 00:01:36;;;;;;;;;;;;;;;17.23;65.67;100865.38;7409496;19;1121;-80
2023/02/23 00:04:05;;;;;;;;;;;;;;;17.21;65.65;100861.97;7408035;19;1756;-80
2023/02/23 00:06:39;;;;;;;;;;;;;;;17.26;65.27;100857.97;7406641;19;1838;-80
2023/02/23 00:09:10;;;;;;;;;;;;;;;17.23;65.08;100852.00;7406953;19;1768;-81
2023/02/23 00:11:40;;;;;;;;;;;;;;;17.22;65.16;100853.00;7405491;19;1851;-80
2023/02/23 00:14:08;;;;;;;;;;;;;;;17.22;65.32;100861.00;7405616;19;1749;-80
2023/02/23 00:16:36;;;;;;;;;;;;;;;17.20;65.29;100869.16;7407181;19;1930;-81
2023/02/23 00:19:06;;;;;;;;;;;;;;;17.19;65.27;100864.78;7407508;19;1786;-81
2023/02/23 00:21:37;;;;;;;;;;;;;;;17.19;65.38;100869.25;7407796;19;1764;-80
2023/02/23 00:24:07;;;;;;;;;;;;;;;17.17;64.98;100855.16;7407309;19;1835;-80
2023/02/23 00:26:36;;;;;;;;;;;;;;;17.15;65.45;100868.69;7406823;19;1756;-80
2023/02/23 00:29:06;;;;;;;;;;;;;;;17.12;65.25;100858.22;7405407;19;2090;-81
2023/02/23 00:31:37;;;;;;;;;;;;;;;17.14;65.13;100858.09;7404403;19;1865;-80
2023/02/23 00:34:06;;;;;;;;;;;;;;;17.12;65.18;100865.38;7404679;19;1768;-81
2023/02/23 00:36:37;;;;;;;;;;;;;;;17.10;65.23;100871.69;7407632;19;1707;-80
2023/02/23 00:39:17;;;;;;;;;;;;;;;17.10;65.25;100870.84;7405581;19;1747;-81
2023/02/23 00:41:45;;;;;;;;;;;;;;;17.10;65.34;100870.84;7406836;19;1832;-80
2023/02/23 00:44:14;;;;;;;;;;;;;;;17.10;64.90;100869.03;7406980;19;1781;-80
2023/02/23 00:46:44;;;;;;;;;;;;;;;17.10;65.24;100863.66;7407636;19;995;-81
2023/02/23 00:49:13;;;;;;;;;;;;;;;17.06;65.00;100856.88;7407067;19;1421;-81
2023/02/23 00:51:44;;;;;;;;;;;;;;;17.06;65.01;100850.69;7402947;19;1974;-81
2023/02/23 00:54:13;;;;;;;;;;;;;;;17.06;64.91;100864.88;7405244;19;2125;-81
2023/02/23 00:56:42;;;;;;;;;;;;;;;17.04;64.85;100850.81;7403677;19;1847;-81
2023/02/23 00:59:10;;;;;;;;;;;;;;;17.05;64.86;100856.97;7406760;19;1853;-81
2023/02/23 01:01:40;;;;;;;;;;;;;;;17.03;64.91;100853.59;7405907;19;1761;-81
2023/02/23 01:04:08;;;;;;;;;;;;;;;17.02;64.92;100850.06;7405730;19;1983;-81
2023/02/23 01:06:37;;;;;;;;;;;;;;;17.03;64.96;100853.59;7405584;19;1807;-81
2023/02/23 01:09:12;;;;;;;;;;;;;;;17.06;65.06;100870.22;7404251;19;1827;-80
2023/02/23 01:11:41;;;;;;;;;;;;;;;17.03;64.90;100845.56;7405390;19;1853;-81
2023/02/23 01:14:10;;;;;;;;;;;;;;;17.02;64.74;100842.06;7406449;19;1828;-80
2023/02/23 01:16:38;;;;;;;;;;;;;;;17.01;65.21;100858.19;7403885;19;1970;-80
2023/02/23 01:19:07;;;;;;;;;;;;;;;17.01;64.76;100848.38;7402908;19;1940;-80
2023/02/23 01:21:36;;;;;;;;;;;;;;;17.02;65.24;100863.44;7404741;19;1819;-80
2023/02/23 01:24:04;;;;;;;;;;;;;;;17.01;64.85;100844.84;7403894;19;1754;-80
2023/02/23 01:26:36;;;;;;;;;;;;;;;17.04;64.78;100856.13;7405121;19;1752;-80
2023/02/23 01:29:07;;;;;;;;;;;;;;;16.99;65.05;100854.78;7404692;19;1829;-80
2023/02/23 01:31:35;;;;;;;;;;;;;;;16.98;65.00;100851.28;7403831;19;1838;-80
2023/02/23 01:34:04;;;;;;;;;;;;;;;16.97;65.14;100878.97;7405212;19;1690;-80
2023/02/23 01:36:35;;;;;;;;;;;;;;;16.97;65.01;100856.75;7405516;19;1757;-80
2023/02/23 01:39:06;;;;;;;;;;;;;;;16.96;64.94;100858.56;7403664;19;1786;-80
2023/02/23 01:41:37;;;;;;;;;;;;;;;16.96;65.17;100858.56;7405583;19;1855;-80
2023/02/23 01:44:07;;;;;;;;;;;;;;;16.93;64.84;100853.47;7402629;19;1922;-81
2023/02/23 01:46:37;;;;;;;;;;;;;;;16.95;64.87;100859.56;7404987;19;1767;-81
2023/02/23 01:49:06;;;;;;;;;;;;;;;16.93;64.99;100858.81;7404334;19;1817;-81
2023/02/23 01:51:38;;;;;;;;;;;;;;;16.90;64.92;100840.34;7403925;19;2079;-81
2023/02/23 01:54:13;;;;;;;;;;;;;;;16.93;64.91;100856.16;7402992;19;1832;-81
2023/02/23 01:56:46;;;;;;;;;;;;;;;16.90;64.71;100864.38;7404115;19;1508;-81
2023/02/23 01:59:15;;;;;;;;;;;;;;;16.93;64.96;100866.84;7403119;19;1754;-81
2023/02/23 02:01:44;;;;;;;;;;;;;;;16.90;64.88;100859.03;7404400;19;1747;-81
2023/02/23 02:04:15;;;;;;;;;;;;;;;16.93;64.97;100848.13;7404351;19;1729;-81
2023/02/23 02:06:44;;;;;;;;;;;;;;;16.89;65.18;100860.88;7403093;19;1749;-81
2023/02/23 02:09:18;;;;;;;;;;;;;;;16.89;64.88;100868.03;7402372;19;1756;-81
2023/02/23 02:11:52;;;;;;;;;;;;;;;16.90;65.06;100864.38;7402109;19;1850;-80
2023/02/23 02:14:23;;;;;;;;;;;;;;;16.89;65.00;100873.34;7404631;19;1768;-81
2023/02/23 02:17:01;;;;;;;;;;;;;;;16.89;65.00;100857.34;7403789;19;1836;-80
2023/02/23 02:19:44;;;;;;;;;;;;;;;16.89;65.06;100871.56;7403315;19;1747;-81
2023/02/23 02:22:20;;;;;;;;;;;;;;;16.89;65.07;100857.34;7399813;19;1759;-81
2023/02/23 02:25:03;;;;;;;;;;;;;;;16.88;64.75;100861.00;7401975;19;1763;-80
2023/02/23 02:27:44;;;;;;;;;;;;;;;16.91;64.79;100863.44;7401763;19;1739;-81
2023/02/23 02:30:30;;;;;;;;;;;;;;;16.90;64.69;100872.41;7402065;19;1744;-81
2023/02/23 02:33:17;;;;;;;;;;;;;;;16.88;64.93;100863.66;7398827;19;1846;-81
2023/02/23 02:36:01;;;;;;;;;;;;;;;16.83;64.99;100858.69;7400181;19;2103;-81
2023/02/23 02:38:36;;;;;;;;;;;;;;;16.83;64.76;100853.34;7402607;19;1995;-81
2023/02/23 02:41:06;;;;;;;;;;;;;;;16.85;64.78;100861.22;7403215;19;1820;-81
2023/02/23 02:43:41;;;;;;;;;;;;;;;16.85;64.70;100866.56;7400768;19;1896;-80
2023/02/23 02:46:13;;;;;;;;;;;;;;;16.85;65.19;100878.13;7402643;19;1847;-81
2023/02/23 02:48:47;;;;;;;;;;;;;;;16.83;64.92;100869.38;7400057;19;1851;-81
2023/02/23 02:51:20;;;;;;;;;;;;;;;17.52;63.02;100873.75;7401821;19;1836;-81
2023/02/23 02:53:53;;;;;;;;;;;;;;;18.20;61.56;100878.97;7401679;19;1768;-81
2023/02/23 02:56:23;;;;;;;;;;;;;;;19.02;59.28;100875.63;7403060;19;1749;-81
2023/02/23 02:58:54;;;;;;;;;;;;;;;19.46;58.17;100881.63;7406734;19;1804;-81
2023/02/23 04:17:40;;;;;;;;;;;;;;;19.25;59.34;100911.16;7409612;19;1688;-81
2023/02/23 04:20:10;;;;;;;;;;;;;;;19.13;59.73;100896.16;7410998;19;1388;-81
2023/02/23 04:22:38;;;;;;;;;;;;;;;18.74;60.69;100915.50;7407593;19;1966;-81
2023/02/23 04:25:07;;;;;;;;;;;;;;;18.39;61.36;100918.47;7404912;19;1679;-81
2023/02/23 04:27:36;;;;;;;;;;;;;;;18.35;61.59;100911.66;7405209;19;1740;-81
2023/02/23 04:30:05;;;;;;;;;;;;;;;18.74;60.72;100915.50;7403711;19;1742;-81
2023/02/23 04:32:35;;;;;;;;;;;;;;;19.17;59.81;100909.16;7404892;19;1861;-81
2023/02/23 04:35:04;;;;;;;;;;;;;;;19.28;59.39;100925.16;7405163;19;1938;-81
2023/02/23 04:37:32;;;;;;;;;;;;;;;18.82;60.54;100926.44;7407504;19;1752;-81
2023/02/23 04:40:01;;;;;;;;;;;;;;;18.43;61.47;100925.25;7405731;19;1779;-81
2023/02/23 04:42:29;;;;;;;;;;;;;;;18.26;61.73;100913.25;7405755;19;1830;-81
2023/02/23 04:44:57;;;;;;;;;;;;;;;18.51;61.30;100928.13;7404363;19;1993;-81
2023/02/23 04:47:26;;;;;;;;;;;;;;;19.01;60.17;100909.63;7406828;19;1764;-81
2023/02/23 04:49:57;;;;;;;;;;;;;;;19.39;59.09;100916.16;7403973;19;1757;-81
2023/02/23 04:52:25;;;;;;;;;;;;;;;19.63;57.99;100928.41;7405902;19;1975;-81
2023/02/23 04:54:53;;;;;;;;;;;;;;;19.67;58.46;100927.16;7407518;19;1824;-81
2023/02/23 04:57:22;;;;;;;;;;;;;;;19.66;58.34;100926.31;7406006;19;1870;-81
2023/02/23 04:59:50;;;;;;;;;;;;;;;19.64;58.32;100932.81;7406518;19;2074;-81
2023/02/23 05:02:18;;;;;;;;;;;;;;;19.65;57.97;100929.97;7405119;19;1828;-81
2023/02/23 05:04:46;;;;;;;;;;;;;;;19.59;58.35;100919.78;7403036;19;1880;-81
2023/02/23 05:07:17;;;;;;;;;;;;;;;19.65;58.46;100931.81;7403572;19;1417;-81
2023/02/23 05:09:45;;;;;;;;;;;;;;;19.61;58.49;100928.53;7338102;19;12415;-81
2023/02/23 05:12:14;;;;;;;;;;;;;;;19.65;58.53;100946.06;7404463;19;1842;-81
2023/02/23 05:14:42;;;;;;;;;;;;;;;19.62;58.59;100929.41;7405669;19;1617;-81
2023/02/23 05:17:10;;;;;;;;;;;;;;;19.63;58.34;100952.56;7407139;19;1637;-81
2023/02/23 05:19:39;;;;;;;;;;;;;;;19.63;58.27;100933.78;7404989;19;1582;-80
2023/02/23 05:22:11;;;;;;;;;;;;;;;19.71;58.04;100966.16;7403004;19;1969;-81
2023/02/23 05:24:42;;;;;;;;;;;;;;;19.76;57.89;100953.19;7404501;19;1760;-81
2023/02/23 05:27:12;;;;;;;;;;;;;;;19.77;57.51;100948.69;7401840;19;1587;-80
2023/02/23 05:29:40;;;;;;;;;;;;;;;19.79;57.39;100958.28;7401246;19;1725;-80
2023/02/23 05:32:09;;;;;;;;;;;;;;;19.65;57.71;100964.00;7402593;19;1842;-80
2023/02/23 05:34:37;;;;;;;;;;;;;;;18.96;59.43;100960.09;7401045;19;1493;-80
2023/02/23 05:37:06;;;;;;;;;;;;;;;18.54;59.59;100965.34;7405917;19;986;-80
2023/02/23 05:39:34;;;;;;;;;;;;;;;18.36;59.74;100972.25;7403702;19;1974;-80
2023/02/23 05:42:05;;;;;;;;;;;;;;;18.50;59.34;100969.28;7406064;19;1911;-80
2023/02/23 05:44:37;;;;;;;;;;;;;;;19.24;57.79;100989.91;7404897;19;1757;-79
2023/02/23 05:47:06;;;;;;;;;;;;;;;19.46;57.45;100973.66;7405605;19;1840;-80
2023/02/23 05:49:34;;;;;;;;;;;;;;;19.00;58.40;100987.47;7400260;19;1751;-80
2023/02/23 05:52:03;;;;;;;;;;;;;;;18.52;58.53;100982.53;7392987;19;1819;-80
2023/02/23 05:54:31;;;;;;;;;;;;;;;18.22;59.26;101014.41;7397724;19;1465;-80
2023/02/23 05:57:01;;;;;;;;;;;;;;;18.61;57.83;101009.41;7401611;19;1739;-80
2023/02/23 05:59:34;;;;;;;;;;;;;;;18.87;56.74;101006.44;7401488;19;1651;-80
2023/02/23 06:02:03;;;;;;;;;;;;;;;19.35;54.55;101000.53;7401526;19;1636;-80
2023/02/23 06:04:33;;;;;;;;;;;;;;;19.12;55.42;101010.56;7400051;19;1789;-80
2023/02/23 06:07:01;;;;;;;;;;;;;;;18.73;56.65;101028.13;7402755;19;1528;-80
2023/02/23 06:09:29;;;;;;;;;;;;;;;18.47;57.48;101023.09;7398321;19;1401;-81
2023/02/23 06:11:59;;;;;;;;;;;;;;;18.60;57.50;101018.44;7398719;19;1842;-79
2023/02/23 06:14:27;;;;;;;;;;;;;;;19.25;56.10;101039.88;7402133;19;1604;-80
2023/02/23 06:16:59;;;;;;;;;;;;;;;19.42;56.08;101015.13;7403438;19;1375;-80
2023/02/23 06:19:27;;;;;;;;;;;;;;;19.03;57.52;101036.31;7404302;19;1978;-80
2023/02/23 06:21:55;;;;;;;;;;;;;;;18.72;58.36;101050.53;7402910;19;1966;-80
2023/02/23 06:24:23;;;;;;;;;;;;;;;18.61;59.11;101036.19;7400611;19;1935;-80
2023/02/23 06:26:52;;;;;;;;;;;;;;;18.52;59.32;101053.00;7401900;19;1607;-80
2023/02/23 06:29:20;;;;;;;;;;;;;;;18.38;60.33;101045.25;7401231;19;1982;-80
2023/02/23 06:31:48;;;;;;;;;;;;;;;18.79;59.38;101055.28;7403683;19;1857;-80
2023/02/23 06:34:19;;;;;;;;;;;;;;;19.33;57.80;101060.66;7407869;19;1643;-80
2023/02/23 06:36:47;;;;;;;;;;;;;;;19.50;57.44;101064.56;7406905;19;1507;-79
2023/02/23 06:39:15;;;;;;;;;;;;;;;18.97;58.56;101057.44;7406678;19;1536;-79
2023/02/23 06:41:44;;;;;;;;;;;;;;;18.66;59.47;101073.31;7408329;19;1649;-79
2023/02/23 06:44:12;;;;;;;;;;;;;;;18.55;59.95;101073.34;7409615;19;1396;-80
2023/02/23 06:46:40;;;;;;;;;;;;;;;18.46;60.51;101075.81;7408600;19;1862;-79
2023/02/23 06:49:08;;;;;;;;;;;;;;;18.61;60.45;101076.38;7404368;19;1634;-79
2023/02/23 06:51:39;;;;;;;;;;;;;;;19.14;59.22;101062.22;7408149;19;1568;-79
2023/02/23 06:54:07;;;;;;;;;;;;;;;19.04;59.19;101059.47;7400917;19;1849;-80
2023/02/23 06:56:36;;;;;;;;;;;;;;;18.75;59.99;101064.53;7407802;19;1447;-80
2023/02/23 06:59:04;;;;;;;;;;;;;;;18.52;60.12;101063.72;7408537;19;1434;-80
2023/02/23 07:01:32;;;;;;;;;;;;;;;18.52;60.29;101062.88;7407161;19;1548;-80
2023/02/23 07:04:00;;;;;;;;;;;;;;;19.03;58.95;101062.28;7408220;19;1543;-80
2023/02/23 07:06:30;;;;;;;;;;;;;;;19.47;57.90;101055.81;7408404;19;1463;-80
2023/02/23 07:09:01;;;;;;;;;;;;;;;19.02;58.92;101058.75;7407507;19;1468;-79
2023/02/23 07:11:29;;;;;;;;;;;;;;;18.64;59.77;101051.16;7405547;19;1656;-80
2023/02/23 07:14:00;;;;;;;;;;;;;;;18.46;60.45;101072.25;7408226;19;1865;-80
2023/02/23 07:16:29;;;;;;;;;;;;;;;18.73;60.09;101077.19;7407458;19;1428;-80
2023/02/23 07:18:57;;;;;;;;;;;;;;;19.46;58.42;101077.41;7409141;19;1469;-80
2023/02/23 07:21:25;;;;;;;;;;;;;;;19.37;58.53;101073.66;7408584;19;1953;-80
2023/02/23 07:23:53;;;;;;;;;;;;;;;18.94;59.66;101065.72;7407289;19;1918;-80
2023/02/23 07:26:24;;;;;;;;;;;;;;;18.59;63.06;101097.09;7409402;19;1807;-80
2023/02/23 07:28:54;;;;;;;;;;;;;;;18.54;66.47;101072.47;7408913;19;1457;-80
2023/02/23 07:31:23;;;;;;;;;;;;;;;19.17;62.34;101075.34;7409705;19;1411;-80
2023/02/23 07:33:51;;;;;;;;;;;;;;;19.51;61.76;101075.19;7405790;19;1858;-80
2023/02/23 07:36:19;;;;;;;;;;;;;;;19.25;62.55;101090.81;7407397;19;1840;-80
2023/02/23 07:38:48;;;;;;;;;;;;;;;18.89;63.76;101090.22;7386546;19;1516;-81
2023/02/23 07:41:16;;;;;;;;;;;;;;;18.65;64.24;101075.16;7400973;19;1515;-80
2023/02/23 07:43:47;;;;;;;;;;;;;;;18.65;65.50;101083.19;7399153;19;1441;-81
2023/02/23 07:46:16;;;;;;;;;;;;;;;19.46;62.89;101089.00;7402787;19;1661;-81
2023/02/23 07:48:44;;;;;;;;;;;;;;;19.73;62.36;101087.63;7401343;19;1621;-81
2023/02/23 07:51:14;;;;;;;;;;;;;;;19.59;62.85;101080.72;7405888;19;1586;-81
2023/02/23 07:53:42;;;;;;;;;;;;;;;19.07;64.51;101096.72;7402673;19;1880;-81
2023/02/23 07:56:11;;;;;;;;;;;;;;;18.69;65.25;101097.19;6875671;19;9999610;-81
2023/02/23 07:58:40;;;;;;;;;;;;;;;18.57;65.45;101093.69;7399950;19;1701;-82
2023/02/23 08:01:11;;;;;;;;;;;;;;;18.94;65.09;101088.03;7399859;19;1401;-81
2023/02/23 08:03:40;;;;;;;;;;;;;;;19.67;62.65;101104.22;7400020;19;1492;-81
2023/02/23 08:06:08;;;;;;;;;;;;;;;19.70;63.02;101087.88;7396612;19;1748;-81
2023/02/23 08:08:37;;;;;;;;;;;;;;;19.52;63.47;101094.78;7398900;19;1438;-81
2023/02/23 08:11:06;;;;;;;;;;;;;;;18.99;64.71;101109.06;7401094;19;1472;-81
2023/02/23 08:13:34;;;;;;;;;;;;;;;18.61;65.70;101111.19;7401842;19;1956;-81
2023/02/23 08:16:03;;;;;;;;;;;;;;;18.44;66.04;101115.25;7401865;19;1828;-81
2023/02/23 08:18:34;;;;;;;;;;;;;;;19.17;64.36;101104.00;7402892;19;1840;-81
2023/02/23 08:21:02;;;;;;;;;;;;;;;19.57;62.85;101104.16;7406217;19;1554;-81
2023/02/23 08:23:31;;;;;;;;;;;;;;;19.84;62.55;101111.72;7403066;19;1848;-81
2023/02/23 08:26:00;;;;;;;;;;;;;;;19.30;63.78;101104.69;7406676;19;1611;-81
2023/02/23 08:28:28;;;;;;;;;;;;;;;18.85;64.97;101116.41;7405340;19;1446;-81
2023/02/23 08:30:58;;;;;;;;;;;;;;;18.57;65.46;101124.97;7405656;19;1583;-81
2023/02/23 08:33:30;;;;;;;;;;;;;;;18.64;65.49;101113.63;7404344;19;1857;-81
2023/02/23 08:36:05;;;;;;;;;;;;;;;19.16;64.36;101138.00;7403699;19;2081;-81
2023/02/23 08:38:35;;;;;;;;;;;;;;;19.46;62.77;101126.53;7405846;19;1763;-81
2023/02/23 08:41:04;;;;;;;;;;;;;;;19.07;64.19;101128.88;7405946;19;1835;-81
2023/02/23 08:43:32;;;;;;;;;;;;;;;18.73;64.75;101130.78;7403938;19;1899;-81
2023/02/23 08:46:00;;;;;;;;;;;;;;;18.60;64.83;101130.06;7404966;19;1542;-80
2023/02/23 08:48:29;;;;;;;;;;;;;;;19.00;64.38;101127.72;7403321;19;1553;-81
2023/02/23 08:50:58;;;;;;;;;;;;;;;19.61;62.44;101131.56;7399240;19;1867;-78
2023/02/23 08:53:29;;;;;;;;;;;;;;;19.50;63.02;101143.22;7397725;19;1862;-78
2023/02/23 08:55:59;;;;;;;;;;;;;;;19.12;63.44;101135.69;7408173;19;1509;-80
2023/02/23 08:58:27;;;;;;;;;;;;;;;18.87;64.47;101122.50;7407508;19;1422;-81
2023/02/23 09:00:56;;;;;;;;;;;;;;;18.70;64.80;101131.03;7403450;19;1619;-81
2023/02/23 09:03:25;;;;;;;;;;;;;;;18.87;64.07;101135.06;7403746;19;1878;-80
2023/02/23 09:05:53;;;;;;;;;;;;;;;19.35;62.64;101139.16;7406488;19;1581;-80
2023/02/23 09:08:22;;;;;;;;;;;;;;;19.71;62.01;101143.25;7403079;19;1883;-81
2023/02/23 09:10:53;;;;;;;;;;;;;;;19.47;62.63;101130.91;7398509;19;1638;-80
2023/02/23 09:13:21;;;;;;;;;;;;;;;19.02;63.14;101144.50;7402348;19;1856;-80
2023/02/23 09:15:50;;;;;;;;;;;;;;;18.78;64.20;101133.06;7400487;19;1484;-80
2023/02/23 09:18:18;;;;;;;;;;;;;;;18.66;64.07;101134.91;7403273;19;1626;-80
2023/02/23 09:20:47;;;;;;;;;;;;;;;19.08;62.83;101127.06;7401728;19;1571;-80
2023/02/23 09:23:15;;;;;;;;;;;;;;;19.66;60.80;101129.38;7399048;19;1622;-80
2023/02/23 09:25:45;;;;;;;;;;;;;;;19.65;60.96;101128.50;7403057;19;1516;-81
2023/02/23 09:28:16;;;;;;;;;;;;;;;19.32;61.69;101136.72;7405314;19;1548;-80
2023/02/23 09:30:48;;;;;;;;;;;;;;;19.10;62.40;101133.16;7409012;19;1826;-79
2023/02/23 09:33:17;;;;;;;;;;;;;;;18.97;63.05;101154.75;7405766;19;1868;-79
2023/02/23 09:35:45;;;;;;;;;;;;;;;18.85;64.43;101153.06;7402620;19;1469;-80
2023/02/23 09:38:13;;;;;;;;;;;;;;;19.47;63.26;101147.00;7401196;19;1568;-79
2023/02/23 09:40:47;;;;;;;;;;;;;;;20.02;61.79;101130.72;7397571;19;1591;-80
2023/02/23 09:43:23;;;;;;;;;;;;;;;19.71;63.38;101143.25;7401182;19;1655;-79
2023/02/23 09:45:59;;;;;;;;;;;;;;;19.36;65.16;101139.03;7401135;19;1479;-80
2023/02/23 09:48:29;;;;;;;;;;;;;;;19.17;66.78;101149.56;7403458;19;1557;-80
2023/02/23 09:50:58;;;;;;;;;;;;;;;19.03;68.44;101142.69;7402701;19;1629;-79
2023/02/23 09:53:31;;;;;;;;;;;;;;;18.95;69.01;101129.91;7399351;19;1917;-79
2023/02/23 09:56:00;;;;;;;;;;;;;;;19.30;67.21;101144.03;7401845;19;1575;-79
2023/02/23 09:58:32;;;;;;;;;;;;;;;19.79;65.30;101143.44;7399773;19;1496;-80
2023/02/23 10:01:11;;;;;;;;;;;;;;;19.73;65.22;101152.03;7397395;19;1586;-79
2023/02/23 10:03:41;;;;;;;;;;;;;;;19.42;65.82;101127.78;7398669;19;1525;-80
2023/02/23 10:06:12;;;;;;;;;;;;;;;19.21;66.82;101130.41;7401915;19;1800;-80
2023/02/23 10:08:48;;;;;;;;;;;;;;;19.11;66.93;101131.31;7402463;19;1783;-80
2023/02/23 10:11:22;;;;;;;;;;;;;;;19.06;66.91;101119.16;7397400;19;1416;-79
2023/02/23 10:13:59;;;;;;;;;;;;;;;19.06;66.82;101129.03;7402572;19;1837;-80
2023/02/23 10:16:35;;;;;;;;;;;;;;;18.80;67.01;101093.66;7402264;19;1601;-80
2023/02/23 10:19:08;;;;;;;;;;;;;;;19.48;65.22;101127.25;7398829;19;1210;-80
2023/02/23 10:21:40;;;;;;;;;;;;;;;19.81;64.25;101128.06;7401803;19;1601;-80
2023/02/23 10:24:12;;;;;;;;;;;;;;;19.60;64.30;101132.56;7398255;19;1634;-80
2023/02/23 10:26:45;;;;;;;;;;;;;;;19.31;65.27;101121.63;7401344;19;1745;-80
2023/02/23 10:29:22;;;;;;;;;;;;;;;19.10;65.79;101127.81;7402524;19;1920;-80
2023/02/23 10:31:52;;;;;;;;;;;;;;;18.98;65.99;101116.25;7400007;19;1521;-80
2023/02/23 10:34:21;;;;;;;;;;;;;;;19.29;65.18;101127.09;7397055;19;1828;-80
2023/02/23 10:36:52;;;;;;;;;;;;;;;19.75;63.78;101108.97;7402904;19;1613;-80
2023/02/23 10:39:20;;;;;;;;;;;;;;;19.66;64.02;101137.41;7399504;19;1741;-80
2023/02/23 10:41:49;;;;;;;;;;;;;;;19.40;64.34;101120.84;7399082;19;1504;-80
2023/02/23 10:44:21;;;;;;;;;;;;;;;19.22;64.99;101121.41;7400264;19;1606;-80
2023/02/23 10:46:52;;;;;;;;;;;;;;;19.16;65.29;101099.59;7400570;19;1980;-80
2023/02/23 10:49:23;;;;;;;;;;;;;;;19.26;64.79;101103.25;7399314;19;1687;-80
2023/02/23 10:51:57;;;;;;;;;;;;;;;19.90;63.21;101093.38;7399165;19;1568;-80
2023/02/23 10:54:38;;;;;;;;;;;;;;;19.94;62.70;101102.88;7397564;19;1815;-80
2023/02/23 10:57:09;;;;;;;;;;;;;;;19.63;63.60;101081.31;7400987;19;1495;-80
2023/02/23 10:59:41;;;;;;;;;;;;;;;19.48;63.75;101070.94;7397784;19;1872;-81
2023/02/23 11:02:24;;;;;;;;;;;;;;;19.34;64.56;101082.00;7395304;19;1657;-80
2023/02/23 11:04:54;;;;;;;;;;;;;;;19.16;64.92;101083.53;7402996;19;1174;-79
2023/02/23 11:07:24;;;;;;;;;;;;;;;19.10;65.37;101089.41;7400516;19;1695;-80
2023/02/23 11:09:52;;;;;;;;;;;;;;;19.39;63.56;101073.53;7401382;19;1543;-80
2023/02/23 11:12:23;;;;;;;;;;;;;;;19.72;62.35;101069.00;7401019;19;1539;-79
2023/02/23 11:14:59;;;;;;;;;;;;;;;19.39;62.48;101079.75;7399394;19;2030;-79
2023/02/23 11:17:48;;;;;;;;;;;;;;;19.07;62.87;101055.66;7407454;19;1574;-79
2023/02/23 11:20:28;;;;;;;;;;;;;;;18.89;64.12;101068.78;7410404;19;1623;-79
2023/02/23 11:22:57;;;;;;;;;;;;;;;18.95;65.23;101062.91;7410917;19;1427;-79
2023/02/23 11:25:29;;;;;;;;;;;;;;;19.44;63.69;101082.06;7406559;19;1407;-79
2023/02/23 11:27:58;;;;;;;;;;;;;;;19.65;62.96;101053.38;7411211;19;1633;-79
2023/02/23 11:30:33;;;;;;;;;;;;;;;19.31;64.00;101068.84;7410312;19;1258;-79
2023/02/23 11:33:09;;;;;;;;;;;;;;;19.02;64.53;101072.16;7411628;19;1490;-79
2023/02/23 11:35:38;;;;;;;;;;;;;;;18.89;64.90;101076.81;7407856;19;1849;-78
2023/02/23 11:38:16;;;;;;;;;;;;;;;18.91;65.79;101095.47;7408753;19;1875;-79
2023/02/23 11:40:59;;;;;;;;;;;;;;;19.47;64.17;101074.59;7406757;19;1514;-79
2023/02/23 11:43:27;;;;;;;;;;;;;;;19.41;64.16;101083.16;7407003;19;1935;-79
2023/02/23 11:45:59;;;;;;;;;;;;;;;19.16;64.85;101070.13;7403363;19;1541;-79
2023/02/23 11:48:29;;;;;;;;;;;;;;;18.94;65.18;101079.97;7407616;19;1633;-79
2023/02/23 11:50:58;;;;;;;;;;;;;;;18.77;65.63;101080.50;6372482;19;10000653;-80
2023/02/23 11:53:30;;;;;;;;;;;;;;;18.92;65.53;101081.94;7397147;19;1874;-79
2023/02/23 11:56:01;;;;;;;;;;;;;;;19.39;64.23;101085.13;7399776;19;1831;-79
2023/02/23 11:58:35;;;;;;;;;;;;;;;19.36;63.74;101098.81;7396454;19;1694;-79
2023/02/23 12:01:11;;;;;;;;;;;;;;;19.02;64.36;101085.56;7400920;19;1549;-79
2023/02/23 12:03:42;;;;;;;;;;;;;;;18.75;65.28;101085.97;7397949;19;2143;-79
2023/02/23 12:06:11;;;;;;;;;;;;;;;18.67;65.61;101083.91;7401293;19;1799;-79
2023/02/23 12:08:42;;;;;;;;;;;;;;;19.15;63.83;101088.03;7395792;19;1511;-78
2023/02/23 12:11:14;;;;;;;;;;;;;;;19.57;62.85;101079.16;7400642;19;1818;-79
2023/02/23 12:13:44;;;;;;;;;;;;;;;19.31;63.46;101090.28;7399620;19;1897;-79
2023/02/23 12:16:17;;;;;;;;;;;;;;;19.03;64.49;101079.19;7401167;19;1811;-79
2023/02/23 12:18:48;;;;;;;;;;;;;;;18.86;64.39;101091.34;7401082;19;1534;-79
2023/02/23 12:21:25;;;;;;;;;;;;;;;18.74;65.09;101083.41;7398473;19;1735;-79
2023/02/23 12:23:57;;;;;;;;;;;;;;;19.13;64.37;101076.59;7398313;19;1566;-79
2023/02/23 12:26:26;;;;;;;;;;;;;;;19.64;62.54;101083.03;7398590;19;1581;-79
2023/02/23 12:28:57;;;;;;;;;;;;;;;19.32;63.68;101089.31;7396924;19;1616;-79
2023/02/23 12:31:31;;;;;;;;;;;;;;;19.02;64.09;101080.19;7397949;19;1456;-79
2023/02/23 12:34:02;;;;;;;;;;;;;;;18.83;64.37;101104.97;7396304;19;1864;-79
2023/02/23 12:36:37;;;;;;;;;;;;;;;18.83;64.71;101099.59;7399140;19;1820;-79
2023/02/23 12:39:08;;;;;;;;;;;;;;;19.32;63.36;101092.00;7397236;19;1489;-79
2023/02/23 12:41:39;;;;;;;;;;;;;;;19.51;62.88;101082.38;7398738;19;1445;-79
2023/02/23 12:44:16;;;;;;;;;;;;;;;19.15;63.50;101093.41;7397937;19;1627;-79
2023/02/23 12:46:50;;;;;;;;;;;;;;;18.90;63.95;101099.97;7397575;19;1566;-79
2023/02/23 12:49:24;;;;;;;;;;;;;;;18.69;64.58;101091.81;7397775;19;2411;-79
2023/02/23 12:51:53;;;;;;;;;;;;;;;19.13;63.63;101094.53;7397862;19;1333;-79
2023/02/23 12:54:21;;;;;;;;;;;;;;;19.61;62.03;101083.28;7398185;19;1837;-79
2023/02/23 12:56:56;;;;;;;;;;;;;;;19.29;63.45;101089.56;7394919;19;1580;-80
2023/02/23 12:59:38;;;;;;;;;;;;;;;18.95;63.85;101087.03;7400559;19;1621;-79
2023/02/23 13:02:15;;;;;;;;;;;;;;;18.74;64.49;101091.44;7408064;19;1997;-80
2023/02/23 13:04:55;;;;;;;;;;;;;;;18.79;64.63;101103.53;7397830;19;1542;-80
2023/02/23 13:07:25;;;;;;;;;;;;;;;19.42;62.79;101100.97;7395694;19;1444;-79
2023/02/23 13:10:01;;;;;;;;;;;;;;;19.44;62.83;101087.44;7393502;19;1770;-79
2023/02/23 13:12:35;;;;;;;;;;;;;;;19.04;63.79;101083.59;7395244;19;1836;-79
2023/02/23 13:15:09;;;;;;;;;;;;;;;18.88;64.18;101104.63;7394099;19;1849;-79
2023/02/23 13:17:45;;;;;;;;;;;;;;;18.73;64.56;101097.78;7393846;19;1811;-79
2023/02/23 13:20:19;;;;;;;;;;;;;;;19.09;63.48;101088.56;7393967;19;2081;-79
2023/02/23 13:22:51;;;;;;;;;;;;;;;19.46;62.39;101105.09;7392577;19;1531;-79
2023/02/23 13:25:25;;;;;;;;;;;;;;;19.15;63.05;101089.88;7392329;19;1446;-80
2023/02/23 13:27:55;;;;;;;;;;;;;;;18.88;63.69;101102.78;7398492;19;1637;-79
2023/02/23 13:30:23;;;;;;;;;;;;;;;18.85;64.07;101096.81;7403389;19;1842;-78
2023/02/23 13:32:57;;;;;;;;;;;;;;;18.83;64.08;101096.94;7396475;19;1725;-78
2023/02/23 13:35:27;;;;;;;;;;;;;;;19.33;62.77;101104.41;7401383;19;1859;-78
2023/02/23 13:37:59;;;;;;;;;;;;;;;19.56;62.24;101101.63;7404433;19;1986;-79
2023/02/23 13:40:32;;;;;;;;;;;;;;;19.09;63.46;101096.59;7401450;19;1832;-78
2023/02/23 13:43:06;;;;;;;;;;;;;;;18.86;64.00;101098.50;7403728;19;1393;-78
2023/02/23 13:45:52;;;;;;;;;;;;;;;18.62;64.24;101104.00;7403732;19;1432;-79
2023/02/23 13:48:32;;;;;;;;;;;;;;;19.12;63.13;101088.31;7399499;19;1678;-79
2023/02/23 13:51:05;;;;;;;;;;;;;;;19.46;62.08;101123.84;7405085;19;1495;-79
2023/02/23 13:53:41;;;;;;;;;;;;;;;19.29;62.53;101108.34;7406416;19;1714;-79
2023/02/23 13:56:11;;;;;;;;;;;;;;;18.90;63.54;101124.09;7405119;19;1847;-79
2023/02/23 13:58:46;;;;;;;;;;;;;;;18.64;64.42;101131.53;7405768;19;1566;-79
2023/02/23 14:01:17;;;;;;;;;;;;;;;18.63;64.31;101145.91;7406633;19;1761;-79
2023/02/23 14:03:49;;;;;;;;;;;;;;;18.99;63.09;101117.94;7403039;19;1644;-79
2023/02/23 14:06:19;;;;;;;;;;;;;;;19.36;62.11;101144.38;7402937;19;1824;-79
2023/02/23 14:08:54;;;;;;;;;;;;;;;19.27;62.43;101121.03;7404391;19;1503;-79
2023/02/23 14:11:36;;;;;;;;;;;;;;;18.84;63.54;101121.88;7401777;19;1591;-79
2023/02/23 14:14:05;;;;;;;;;;;;;;;18.87;63.57;101137.72;7401513;19;1548;-79
2023/02/23 14:16:35;;;;;;;;;;;;;;;19.45;62.16;101127.50;6372403;19;10000678;-79
2023/02/23 14:19:11;;;;;;;;;;;;;;;19.92;60.72;101129.00;7391407;19;1866;-79
2023/02/23 14:21:45;;;;;;;;;;;;;;;20.11;60.09;101128.22;7393796;19;1534;-79